sensor_id;sensor_type;location;lat;lon;timestamp;temperature;humidity
14370;DHT22;7268;50.792;0.252;2023-06-04T00:00:35;11.00;94.40
14370;DHT22;7268;50.792;0.252;2023-06-04T00:03:02;11.00;94.30
14370;DHT22;7268;50.792;0.252;2023-06-04T00:05:32;11.00;94.30
14370;DHT22;7268;50.792;0.252;2023-06-04T00:07:59;11.10;94.20
14370;DHT22;7268;50.792;0.252;2023-06-04T00:10:26;11.00;94.20
14370;DHT22;7268;50.792;0.252;2023-06-04T00:12:54;11.00;94.30
14370;DHT22;7268;50.792;0.252;2023-06-04T00:15:21;10.80;94.50
14370;DHT22;7268;50.792;0.252;2023-06-04T00:17:49;10.80;94.50
14370;DHT22;7268;50.792;0.252;2023-06-04T00:20:17;10.70;94.50
14370;DHT22;7268;50.792;0.252;2023-06-04T00:22:44;10.80;94.80
14370;DHT22;7268;50.792;0.252;2023-06-04T00:25:11;10.80;94.60
14370;DHT22;7268;50.792;0.252;2023-06-04T00:27:41;10.90;94.60
14370;DHT22;7268;50.792;0.252;2023-06-04T00:30:08;10.80;94.60
14370;DHT22;7268;50.792;0.252;2023-06-04T00:32:36;10.80;94.60
14370;DHT22;7268;50.792;0.252;2023-06-04T00:35:04;10.70;94.80
14370;DHT22;7268;50.792;0.252;2023-06-04T00:37:31;10.70;94.90
14370;DHT22;7268;50.792;0.252;2023-06-04T00:39:59;10.70;94.90
14370;DHT22;7268;50.792;0.252;2023-06-04T00:42:30;10.70;94.90
14370;DHT22;7268;50.792;0.252;2023-06-04T00:44:58;10.70;94.80
14370;DHT22;7268;50.792;0.252;2023-06-04T00:47:25;10.70;94.80
14370;DHT22;7268;50.792;0.252;2023-06-04T00:49:56;10.70;94.90
14370;DHT22;7268;50.792;0.252;2023-06-04T00:52:25;10.70;95.20
14370;DHT22;7268;50.792;0.252;2023-06-04T00:54:52;10.70;95.10
14370;DHT22;7268;50.792;0.252;2023-06-04T00:57:22;10.70;95.00
14370;DHT22;7268;50.792;0.252;2023-06-04T00:59:50;10.70;95.10
14370;DHT22;7268;50.792;0.252;2023-06-04T01:02:23;10.70;95.10
14370;DHT22;7268;50.792;0.252;2023-06-04T01:05:26;10.70;95.20
14370;DHT22;7268;50.792;0.252;2023-06-04T01:08:01;10.60;95.10
14370;DHT22;7268;50.792;0.252;2023-06-04T01:10:29;10.60;95.40
14370;DHT22;7268;50.792;0.252;2023-06-04T01:12:56;10.60;95.40
14370;DHT22;7268;50.792;0.252;2023-06-04T01:15:23;10.70;95.30
14370;DHT22;7268;50.792;0.252;2023-06-04T01:17:54;10.70;95.40
14370;DHT22;7268;50.792;0.252;2023-06-04T01:20:48;10.70;95.20
14370;DHT22;7268;50.792;0.252;2023-06-04T01:23:25;10.60;95.30
14370;DHT22;7268;50.792;0.252;2023-06-04T01:25:55;10.60;95.20
14370;DHT22;7268;50.792;0.252;2023-06-04T01:28:24;10.50;95.40
14370;DHT22;7268;50.792;0.252;2023-06-04T01:30:55;10.70;95.40
14370;DHT22;7268;50.792;0.252;2023-06-04T01:33:23;10.70;95.40
14370;DHT22;7268;50.792;0.252;2023-06-04T01:35:50;10.60;95.30
14370;DHT22;7268;50.792;0.252;2023-06-04T01:38:18;10.50;95.30
14370;DHT22;7268;50.792;0.252;2023-06-04T01:40:45;10.50;95.50
14370;DHT22;7268;50.792;0.252;2023-06-04T01:43:13;10.40;95.60
14370;DHT22;7268;50.792;0.252;2023-06-04T01:45:40;10.40;95.40
14370;DHT22;7268;50.792;0.252;2023-06-04T01:48:07;10.40;95.60
14370;DHT22;7268;50.792;0.252;2023-06-04T01:50:37;10.30;95.70
14370;DHT22;7268;50.792;0.252;2023-06-04T01:53:04;10.30;95.80
14370;DHT22;7268;50.792;0.252;2023-06-04T01:55:31;10.30;96.10
14370;DHT22;7268;50.792;0.252;2023-06-04T01:58:00;10.30;95.90
14370;DHT22;7268;50.792;0.252;2023-06-04T02:00:29;10.30;96.00
14370;DHT22;7268;50.792;0.252;2023-06-04T02:02:57;10.30;95.90
14370;DHT22;7268;50.792;0.252;2023-06-04T02:05:26;10.40;96.10
14370;DHT22;7268;50.792;0.252;2023-06-04T02:07:53;10.40;96.00
14370;DHT22;7268;50.792;0.252;2023-06-04T02:10:21;10.40;95.80
14370;DHT22;7268;50.792;0.252;2023-06-04T02:12:58;10.30;96.10
14370;DHT22;7268;50.792;0.252;2023-06-04T02:15:26;10.30;96.10
14370;DHT22;7268;50.792;0.252;2023-06-04T02:18:00;10.20;96.20
14370;DHT22;7268;50.792;0.252;2023-06-04T02:20:40;10.20;96.20
14370;DHT22;7268;50.792;0.252;2023-06-04T02:23:07;10.20;96.30
14370;DHT22;7268;50.792;0.252;2023-06-04T02:25:34;10.10;96.30
14370;DHT22;7268;50.792;0.252;2023-06-04T02:28:02;10.10;96.50
14370;DHT22;7268;50.792;0.252;2023-06-04T02:30:29;10.20;96.60
14370;DHT22;7268;50.792;0.252;2023-06-04T02:32:57;10.20;96.70
14370;DHT22;7268;50.792;0.252;2023-06-04T02:35:28;10.20;96.60
14370;DHT22;7268;50.792;0.252;2023-06-04T02:37:56;10.30;96.70
14370;DHT22;7268;50.792;0.252;2023-06-04T02:40:25;10.20;96.70
14370;DHT22;7268;50.792;0.252;2023-06-04T02:42:53;10.20;96.70
14370;DHT22;7268;50.792;0.252;2023-06-04T02:45:21;10.20;96.80
14370;DHT22;7268;50.792;0.252;2023-06-04T02:47:48;10.30;97.00
14370;DHT22;7268;50.792;0.252;2023-06-04T02:50:17;10.30;97.20
14370;DHT22;7268;50.792;0.252;2023-06-04T02:52:44;10.30;97.00
14370;DHT22;7268;50.792;0.252;2023-06-04T02:55:11;10.20;97.10
14370;DHT22;7268;50.792;0.252;2023-06-04T02:57:42;10.20;97.10
14370;DHT22;7268;50.792;0.252;2023-06-04T03:00:13;10.20;97.20
14370;DHT22;7268;50.792;0.252;2023-06-04T03:02:43;10.20;97.40
14370;DHT22;7268;50.792;0.252;2023-06-04T03:05:12;10.10;97.30
14370;DHT22;7268;50.792;0.252;2023-06-04T03:07:41;10.10;97.50
14370;DHT22;7268;50.792;0.252;2023-06-04T03:10:11;10.20;97.60
14370;DHT22;7268;50.792;0.252;2023-06-04T03:12:40;10.20;97.70
14370;DHT22;7268;50.792;0.252;2023-06-04T03:15:08;10.20;97.50
14370;DHT22;7268;50.792;0.252;2023-06-04T03:17:35;10.20;97.60
14370;DHT22;7268;50.792;0.252;2023-06-04T03:20:02;10.10;97.60
14370;DHT22;7268;50.792;0.252;2023-06-04T03:22:31;10.10;97.80
14370;DHT22;7268;50.792;0.252;2023-06-04T03:25:00;10.10;97.90
14370;DHT22;7268;50.792;0.252;2023-06-04T03:27:31;10.10;98.10
14370;DHT22;7268;50.792;0.252;2023-06-04T03:29:59;10.10;98.00
14370;DHT22;7268;50.792;0.252;2023-06-04T03:32:26;10.10;98.00
14370;DHT22;7268;50.792;0.252;2023-06-04T03:34:53;10.10;98.10
14370;DHT22;7268;50.792;0.252;2023-06-04T03:37:20;10.10;98.10
14370;DHT22;7268;50.792;0.252;2023-06-04T03:39:47;10.20;98.10
14370;DHT22;7268;50.792;0.252;2023-06-04T03:42:14;10.00;98.10
14370;DHT22;7268;50.792;0.252;2023-06-04T03:44:41;10.00;98.30
14370;DHT22;7268;50.792;0.252;2023-06-04T03:47:08;10.00;98.40
14370;DHT22;7268;50.792;0.252;2023-06-04T03:49:36;10.00;98.30
14370;DHT22;7268;50.792;0.252;2023-06-04T03:52:03;10.00;98.40
14370;DHT22;7268;50.792;0.252;2023-06-04T03:54:30;10.00;98.30
14370;DHT22;7268;50.792;0.252;2023-06-04T03:56:57;9.90;98.50
14370;DHT22;7268;50.792;0.252;2023-06-04T03:59:25;10.00;98.60
14370;DHT22;7268;50.792;0.252;2023-06-04T04:01:52;10.00;98.70
14370;DHT22;7268;50.792;0.252;2023-06-04T04:04:19;10.00;98.70
14370;DHT22;7268;50.792;0.252;2023-06-04T04:06:48;10.10;98.80
14370;DHT22;7268;50.792;0.252;2023-06-04T04:09:15;10.10;98.60
14370;DHT22;7268;50.792;0.252;2023-06-04T04:11:45;10.30;98.70
14370;DHT22;7268;50.792;0.252;2023-06-04T04:14:12;10.30;98.70
14370;DHT22;7268;50.792;0.252;2023-06-04T04:16:39;10.20;98.70
14370;DHT22;7268;50.792;0.252;2023-06-04T04:19:06;10.30;98.70
14370;DHT22;7268;50.792;0.252;2023-06-04T04:21:36;10.30;98.70
14370;DHT22;7268;50.792;0.252;2023-06-04T04:24:04;10.30;98.70
14370;DHT22;7268;50.792;0.252;2023-06-04T04:26:32;10.30;98.70
14370;DHT22;7268;50.792;0.252;2023-06-04T04:29:01;10.40;98.70
14370;DHT22;7268;50.792;0.252;2023-06-04T04:31:28;10.30;98.70
14370;DHT22;7268;50.792;0.252;2023-06-04T04:33:55;10.40;98.90
14370;DHT22;7268;50.792;0.252;2023-06-04T04:36:22;10.40;98.80
14370;DHT22;7268;50.792;0.252;2023-06-04T04:38:50;10.40;98.90
14370;DHT22;7268;50.792;0.252;2023-06-04T04:41:21;10.50;98.90
14370;DHT22;7268;50.792;0.252;2023-06-04T04:43:53;10.50;99.20
14370;DHT22;7268;50.792;0.252;2023-06-04T04:46:20;10.50;99.10
14370;DHT22;7268;50.792;0.252;2023-06-04T04:48:49;10.60;98.90
14370;DHT22;7268;50.792;0.252;2023-06-04T04:51:16;10.70;98.80
14370;DHT22;7268;50.792;0.252;2023-06-04T04:53:44;10.70;98.70
14370;DHT22;7268;50.792;0.252;2023-06-04T04:56:14;10.80;98.60
14370;DHT22;7268;50.792;0.252;2023-06-04T04:58:41;10.90;98.60
14370;DHT22;7268;50.792;0.252;2023-06-04T05:01:11;11.00;98.40
14370;DHT22;7268;50.792;0.252;2023-06-04T05:03:39;11.00;98.30
14370;DHT22;7268;50.792;0.252;2023-06-04T05:06:07;11.00;98.20
14370;DHT22;7268;50.792;0.252;2023-06-04T05:08:35;11.20;98.30
14370;DHT22;7268;50.792;0.252;2023-06-04T05:11:02;11.30;98.40
14370;DHT22;7268;50.792;0.252;2023-06-04T05:13:29;11.30;98.00
14370;DHT22;7268;50.792;0.252;2023-06-04T05:15:57;11.40;97.90
14370;DHT22;7268;50.792;0.252;2023-06-04T05:18:25;11.50;97.80
14370;DHT22;7268;50.792;0.252;2023-06-04T05:20:55;11.60;97.80
14370;DHT22;7268;50.792;0.252;2023-06-04T05:23:22;11.70;97.40
14370;DHT22;7268;50.792;0.252;2023-06-04T05:25:49;11.70;97.40
14370;DHT22;7268;50.792;0.252;2023-06-04T05:28:17;11.80;97.30
14370;DHT22;7268;50.792;0.252;2023-06-04T05:30:45;11.90;97.10
14370;DHT22;7268;50.792;0.252;2023-06-04T05:33:15;12.00;97.00
14370;DHT22;7268;50.792;0.252;2023-06-04T05:35:47;12.10;96.90
14370;DHT22;7268;50.792;0.252;2023-06-04T05:38:27;12.30;96.80
14370;DHT22;7268;50.792;0.252;2023-06-04T05:40:54;12.40;96.20
14370;DHT22;7268;50.792;0.252;2023-06-04T05:43:24;12.50;96.30
14370;DHT22;7268;50.792;0.252;2023-06-04T05:45:52;12.70;96.10
14370;DHT22;7268;50.792;0.252;2023-06-04T05:48:18;12.80;95.70
14370;DHT22;7268;50.792;0.252;2023-06-04T05:50:45;13.00;95.40
14370;DHT22;7268;50.792;0.252;2023-06-04T05:53:14;13.20;95.50
14370;DHT22;7268;50.792;0.252;2023-06-04T05:55:41;13.50;95.00
14370;DHT22;7268;50.792;0.252;2023-06-04T05:58:08;14.30;93.20
14370;DHT22;7268;50.792;0.252;2023-06-04T06:00:35;14.90;92.00
14370;DHT22;7268;50.792;0.252;2023-06-04T06:03:02;15.60;90.40
14370;DHT22;7268;50.792;0.252;2023-06-04T06:05:29;16.30;88.40
14370;DHT22;7268;50.792;0.252;2023-06-04T06:07:56;16.90;86.90
14370;DHT22;7268;50.792;0.252;2023-06-04T06:10:23;17.40;83.30
14370;DHT22;7268;50.792;0.252;2023-06-04T06:12:50;18.40;81.10
14370;DHT22;7268;50.792;0.252;2023-06-04T06:15:17;18.80;78.50
14370;DHT22;7268;50.792;0.252;2023-06-04T06:17:44;19.60;76.00
14370;DHT22;7268;50.792;0.252;2023-06-04T06:20:12;19.60;73.40
14370;DHT22;7268;50.792;0.252;2023-06-04T06:22:41;19.60;73.70
14370;DHT22;7268;50.792;0.252;2023-06-04T06:25:08;19.50;75.00
14370;DHT22;7268;50.792;0.252;2023-06-04T06:27:35;20.40;72.70
14370;DHT22;7268;50.792;0.252;2023-06-04T06:30:02;20.50;71.20
14370;DHT22;7268;50.792;0.252;2023-06-04T06:32:29;21.00;70.20
14370;DHT22;7268;50.792;0.252;2023-06-04T06:34:56;21.30;68.30
14370;DHT22;7268;50.792;0.252;2023-06-04T06:37:23;21.30;68.30
14370;DHT22;7268;50.792;0.252;2023-06-04T06:39:50;22.00;67.60
14370;DHT22;7268;50.792;0.252;2023-06-04T06:42:17;21.90;66.10
14370;DHT22;7268;50.792;0.252;2023-06-04T06:44:45;22.50;65.30
14370;DHT22;7268;50.792;0.252;2023-06-04T06:47:12;22.20;64.80
14370;DHT22;7268;50.792;0.252;2023-06-04T06:49:40;22.30;64.80
14370;DHT22;7268;50.792;0.252;2023-06-04T06:52:08;22.00;66.60
14370;DHT22;7268;50.792;0.252;2023-06-04T06:54:35;22.40;65.40
14370;DHT22;7268;50.792;0.252;2023-06-04T06:57:03;22.40;63.40
14370;DHT22;7268;50.792;0.252;2023-06-04T06:59:30;22.40;64.00
14370;DHT22;7268;50.792;0.252;2023-06-04T07:01:56;22.40;63.10
14370;DHT22;7268;50.792;0.252;2023-06-04T07:04:23;22.60;65.00
14370;DHT22;7268;50.792;0.252;2023-06-04T07:06:50;22.90;63.50
14370;DHT22;7268;50.792;0.252;2023-06-04T07:09:17;23.20;61.70
14370;DHT22;7268;50.792;0.252;2023-06-04T07:11:44;23.70;61.10
14370;DHT22;7268;50.792;0.252;2023-06-04T07:14:11;23.70;60.80
14370;DHT22;7268;50.792;0.252;2023-06-04T07:16:38;24.00;59.20
14370;DHT22;7268;50.792;0.252;2023-06-04T07:19:05;23.40;61.20
14370;DHT22;7268;50.792;0.252;2023-06-04T07:21:32;23.90;60.20
14370;DHT22;7268;50.792;0.252;2023-06-04T07:23:59;23.80;59.40
14370;DHT22;7268;50.792;0.252;2023-06-04T07:26:27;23.90;59.30
14370;DHT22;7268;50.792;0.252;2023-06-04T07:29:00;24.00;58.50
14370;DHT22;7268;50.792;0.252;2023-06-04T07:31:27;24.30;58.40
14370;DHT22;7268;50.792;0.252;2023-06-04T07:34:04;24.00;59.30
14370;DHT22;7268;50.792;0.252;2023-06-04T07:36:31;23.40;59.80
14370;DHT22;7268;50.792;0.252;2023-06-04T07:39:14;24.10;59.70
14370;DHT22;7268;50.792;0.252;2023-06-04T07:42:05;24.70;58.20
14370;DHT22;7268;50.792;0.252;2023-06-04T07:44:34;25.20;57.60
14370;DHT22;7268;50.792;0.252;2023-06-04T07:47:01;25.40;55.80
14370;DHT22;7268;50.792;0.252;2023-06-04T07:49:28;24.50;57.30
14370;DHT22;7268;50.792;0.252;2023-06-04T07:51:55;24.90;57.30
14370;DHT22;7268;50.792;0.252;2023-06-04T07:54:22;25.80;56.30
14370;DHT22;7268;50.792;0.252;2023-06-04T07:56:49;25.80;55.50
14370;DHT22;7268;50.792;0.252;2023-06-04T07:59:23;26.20;55.20
14370;DHT22;7268;50.792;0.252;2023-06-04T08:01:50;25.30;55.20
14370;DHT22;7268;50.792;0.252;2023-06-04T08:04:18;25.60;56.10
14370;DHT22;7268;50.792;0.252;2023-06-04T08:06:46;26.40;55.50
14370;DHT22;7268;50.792;0.252;2023-06-04T08:09:13;26.70;53.90
14370;DHT22;7268;50.792;0.252;2023-06-04T08:11:41;27.10;53.70
14370;DHT22;7268;50.792;0.252;2023-06-04T08:14:10;26.70;55.10
14370;DHT22;7268;50.792;0.252;2023-06-04T08:16:38;26.60;53.60
14370;DHT22;7268;50.792;0.252;2023-06-04T08:19:06;26.50;53.70
14370;DHT22;7268;50.792;0.252;2023-06-04T08:21:34;26.10;53.70
14370;DHT22;7268;50.792;0.252;2023-06-04T08:24:02;26.00;54.30
14370;DHT22;7268;50.792;0.252;2023-06-04T08:26:30;27.00;53.70
14370;DHT22;7268;50.792;0.252;2023-06-04T08:28:57;26.50;53.30
14370;DHT22;7268;50.792;0.252;2023-06-04T08:31:24;26.40;53.80
14370;DHT22;7268;50.792;0.252;2023-06-04T08:33:52;27.30;54.00
14370;DHT22;7268;50.792;0.252;2023-06-04T08:36:19;27.20;52.00
14370;DHT22;7268;50.792;0.252;2023-06-04T08:38:46;26.80;52.70
14370;DHT22;7268;50.792;0.252;2023-06-04T08:41:38;27.40;51.50
14370;DHT22;7268;50.792;0.252;2023-06-04T08:44:06;26.80;51.10
14370;DHT22;7268;50.792;0.252;2023-06-04T08:46:38;26.80;51.50
14370;DHT22;7268;50.792;0.252;2023-06-04T08:49:08;26.30;53.10
14370;DHT22;7268;50.792;0.252;2023-06-04T08:51:37;26.00;53.40
14370;DHT22;7268;50.792;0.252;2023-06-04T08:54:08;26.00;54.10
14370;DHT22;7268;50.792;0.252;2023-06-04T08:56:36;26.30;52.60
14370;DHT22;7268;50.792;0.252;2023-06-04T08:59:05;27.20;52.10
14370;DHT22;7268;50.792;0.252;2023-06-04T09:01:36;27.20;52.10
14370;DHT22;7268;50.792;0.252;2023-06-04T09:04:06;26.60;51.90
14370;DHT22;7268;50.792;0.252;2023-06-04T09:06:39;27.20;52.30
14370;DHT22;7268;50.792;0.252;2023-06-04T09:09:09;27.10;50.80
14370;DHT22;7268;50.792;0.252;2023-06-04T09:11:54;27.30;51.60
14370;DHT22;7268;50.792;0.252;2023-06-04T09:14:21;26.80;52.10
14370;DHT22;7268;50.792;0.252;2023-06-04T09:16:53;27.00;51.50
14370;DHT22;7268;50.792;0.252;2023-06-04T09:19:22;27.90;51.00
14370;DHT22;7268;50.792;0.252;2023-06-04T09:21:56;29.00;48.90
14370;DHT22;7268;50.792;0.252;2023-06-04T09:24:25;29.10;47.60
14370;DHT22;7268;50.792;0.252;2023-06-04T09:26:55;28.40;49.20
14370;DHT22;7268;50.792;0.252;2023-06-04T09:29:22;28.50;50.10
14370;DHT22;7268;50.792;0.252;2023-06-04T09:31:58;28.90;49.20
14370;DHT22;7268;50.792;0.252;2023-06-04T09:34:28;28.20;49.60
14370;DHT22;7268;50.792;0.252;2023-06-04T09:36:56;27.40;51.60
14370;DHT22;7268;50.792;0.252;2023-06-04T09:39:23;27.10;52.00
14370;DHT22;7268;50.792;0.252;2023-06-04T09:42:00;26.60;51.40
14370;DHT22;7268;50.792;0.252;2023-06-04T09:44:29;26.80;51.90
14370;DHT22;7268;50.792;0.252;2023-06-04T09:46:57;27.40;50.30
14370;DHT22;7268;50.792;0.252;2023-06-04T09:49:24;27.80;51.60
14370;DHT22;7268;50.792;0.252;2023-06-04T09:51:51;28.40;49.40
14370;DHT22;7268;50.792;0.252;2023-06-04T09:54:18;28.50;49.80
14370;DHT22;7268;50.792;0.252;2023-06-04T09:56:45;27.70;50.80
14370;DHT22;7268;50.792;0.252;2023-06-04T09:59:13;27.20;50.70
14370;DHT22;7268;50.792;0.252;2023-06-04T10:01:41;27.80;51.60
14370;DHT22;7268;50.792;0.252;2023-06-04T10:04:09;28.40;49.80
14370;DHT22;7268;50.792;0.252;2023-06-04T10:06:39;28.40;49.10
14370;DHT22;7268;50.792;0.252;2023-06-04T10:09:08;28.00;48.60
14370;DHT22;7268;50.792;0.252;2023-06-04T10:11:40;27.30;50.70
14370;DHT22;7268;50.792;0.252;2023-06-04T10:14:25;28.20;49.40
14370;DHT22;7268;50.792;0.252;2023-06-04T10:16:57;29.00;49.10
14370;DHT22;7268;50.792;0.252;2023-06-04T10:19:25;29.10;46.90
14370;DHT22;7268;50.792;0.252;2023-06-04T10:21:55;29.00;47.00
14370;DHT22;7268;50.792;0.252;2023-06-04T10:24:23;28.60;46.90
14370;DHT22;7268;50.792;0.252;2023-06-04T10:26:54;28.50;48.50
14370;DHT22;7268;50.792;0.252;2023-06-04T10:29:23;28.60;47.60
14370;DHT22;7268;50.792;0.252;2023-06-04T10:31:55;28.70;48.00
14370;DHT22;7268;50.792;0.252;2023-06-04T10:34:22;27.90;48.40
14370;DHT22;7268;50.792;0.252;2023-06-04T10:36:49;27.90;48.80
14370;DHT22;7268;50.792;0.252;2023-06-04T10:39:28;27.70;49.20
14370;DHT22;7268;50.792;0.252;2023-06-04T10:42:03;27.80;48.30
14370;DHT22;7268;50.792;0.252;2023-06-04T10:44:30;28.20;49.20
14370;DHT22;7268;50.792;0.252;2023-06-04T10:46:58;28.80;48.50
14370;DHT22;7268;50.792;0.252;2023-06-04T10:49:29;30.20;46.00
14370;DHT22;7268;50.792;0.252;2023-06-04T10:51:57;30.00;44.60
14370;DHT22;7268;50.792;0.252;2023-06-04T10:54:30;29.40;45.60
14370;DHT22;7268;50.792;0.252;2023-06-04T10:56:56;27.80;47.30
14370;DHT22;7268;50.792;0.252;2023-06-04T10:59:24;28.10;49.40
14370;DHT22;7268;50.792;0.252;2023-06-04T11:01:51;28.10;48.00
14370;DHT22;7268;50.792;0.252;2023-06-04T11:04:23;27.10;50.90
14370;DHT22;7268;50.792;0.252;2023-06-04T11:07:03;28.30;50.00
14370;DHT22;7268;50.792;0.252;2023-06-04T11:09:31;29.00;48.10
14370;DHT22;7268;50.792;0.252;2023-06-04T11:12:01;28.90;45.90
14370;DHT22;7268;50.792;0.252;2023-06-04T11:14:28;28.20;48.20
14370;DHT22;7268;50.792;0.252;2023-06-04T11:16:55;28.50;48.70
14370;DHT22;7268;50.792;0.252;2023-06-04T11:19:22;27.80;48.60
14370;DHT22;7268;50.792;0.252;2023-06-04T11:21:53;27.50;49.30
14370;DHT22;7268;50.792;0.252;2023-06-04T11:24:20;27.60;50.30
14370;DHT22;7268;50.792;0.252;2023-06-04T11:26:47;27.30;50.90
14370;DHT22;7268;50.792;0.252;2023-06-04T11:29:34;26.70;52.90
14370;DHT22;7268;50.792;0.252;2023-06-04T11:32:01;26.90;53.70
14370;DHT22;7268;50.792;0.252;2023-06-04T11:34:30;25.90;54.50
14370;DHT22;7268;50.792;0.252;2023-06-04T11:37:08;26.00;55.00
14370;DHT22;7268;50.792;0.252;2023-06-04T11:39:36;26.10;55.10
14370;DHT22;7268;50.792;0.252;2023-06-04T11:42:06;25.60;54.60
14370;DHT22;7268;50.792;0.252;2023-06-04T11:44:34;25.60;56.40
14370;DHT22;7268;50.792;0.252;2023-06-04T11:47:05;25.50;55.90
14370;DHT22;7268;50.792;0.252;2023-06-04T11:49:34;26.20;54.30
14370;DHT22;7268;50.792;0.252;2023-06-04T11:52:02;25.90;55.80
14370;DHT22;7268;50.792;0.252;2023-06-04T11:54:32;26.10;55.70
14370;DHT22;7268;50.792;0.252;2023-06-04T11:57:04;26.40;53.80
14370;DHT22;7268;50.792;0.252;2023-06-04T11:59:32;26.20;54.40
14370;DHT22;7268;50.792;0.252;2023-06-04T12:01:59;25.00;55.70
14370;DHT22;7268;50.792;0.252;2023-06-04T12:04:30;25.20;55.40
14370;DHT22;7268;50.792;0.252;2023-06-04T12:06:59;25.70;56.50
14370;DHT22;7268;50.792;0.252;2023-06-04T12:09:32;25.60;55.60
14370;DHT22;7268;50.792;0.252;2023-06-04T12:12:05;26.00;54.50
14370;DHT22;7268;50.792;0.252;2023-06-04T12:14:33;25.30;56.40
14370;DHT22;7268;50.792;0.252;2023-06-04T12:17:09;24.50;56.40
14370;DHT22;7268;50.792;0.252;2023-06-04T12:19:50;24.20;59.50
14370;DHT22;7268;50.792;0.252;2023-06-04T12:22:17;24.50;55.30
14370;DHT22;7268;50.792;0.252;2023-06-04T12:24:47;24.50;56.30
14370;DHT22;7268;50.792;0.252;2023-06-04T12:27:15;24.60;57.70
14370;DHT22;7268;50.792;0.252;2023-06-04T12:29:42;24.50;57.60
14370;DHT22;7268;50.792;0.252;2023-06-04T12:32:10;24.70;57.70
14370;DHT22;7268;50.792;0.252;2023-06-04T12:34:40;24.10;58.10
14370;DHT22;7268;50.792;0.252;2023-06-04T12:37:10;24.10;58.60
14370;DHT22;7268;50.792;0.252;2023-06-04T12:39:37;23.90;58.00
14370;DHT22;7268;50.792;0.252;2023-06-04T12:42:07;23.80;58.30
14370;DHT22;7268;50.792;0.252;2023-06-04T12:44:39;24.00;58.90
14370;DHT22;7268;50.792;0.252;2023-06-04T12:47:07;23.90;60.00
14370;DHT22;7268;50.792;0.252;2023-06-04T12:49:34;23.50;60.90
14370;DHT22;7268;50.792;0.252;2023-06-04T12:52:02;23.50;60.00
14370;DHT22;7268;50.792;0.252;2023-06-04T12:54:29;23.30;59.00
14370;DHT22;7268;50.792;0.252;2023-06-04T12:56:56;23.40;60.80
14370;DHT22;7268;50.792;0.252;2023-06-04T12:59:25;23.50;60.90
14370;DHT22;7268;50.792;0.252;2023-06-04T13:01:53;23.50;61.10
14370;DHT22;7268;50.792;0.252;2023-06-04T13:04:20;23.20;62.50
14370;DHT22;7268;50.792;0.252;2023-06-04T13:06:47;23.00;60.90
14370;DHT22;7268;50.792;0.252;2023-06-04T13:09:15;22.60;62.60
14370;DHT22;7268;50.792;0.252;2023-06-04T13:11:43;22.40;63.00
14370;DHT22;7268;50.792;0.252;2023-06-04T13:14:10;22.50;64.10
14370;DHT22;7268;50.792;0.252;2023-06-04T13:16:38;22.20;65.80
14370;DHT22;7268;50.792;0.252;2023-06-04T13:19:06;22.00;67.40
14370;DHT22;7268;50.792;0.252;2023-06-04T13:21:34;22.10;66.30
14370;DHT22;7268;50.792;0.252;2023-06-04T13:24:01;22.10;65.00
14370;DHT22;7268;50.792;0.252;2023-06-04T13:26:28;22.10;65.50
14370;DHT22;7268;50.792;0.252;2023-06-04T13:28:55;22.20;63.60
14370;DHT22;7268;50.792;0.252;2023-06-04T13:31:22;22.20;65.40
14370;DHT22;7268;50.792;0.252;2023-06-04T13:33:51;22.40;63.90
14370;DHT22;7268;50.792;0.252;2023-06-04T13:36:22;22.50;64.00
14370;DHT22;7268;50.792;0.252;2023-06-04T13:38:49;22.30;64.60
14370;DHT22;7268;50.792;0.252;2023-06-04T13:41:19;22.20;62.80
14370;DHT22;7268;50.792;0.252;2023-06-04T13:43:47;22.00;64.30
14370;DHT22;7268;50.792;0.252;2023-06-04T13:46:14;21.90;65.00
14370;DHT22;7268;50.792;0.252;2023-06-04T13:48:43;21.80;64.80
14370;DHT22;7268;50.792;0.252;2023-06-04T13:51:09;21.80;65.30
14370;DHT22;7268;50.792;0.252;2023-06-04T13:53:37;22.10;67.20
14370;DHT22;7268;50.792;0.252;2023-06-04T13:56:04;22.40;66.90
14370;DHT22;7268;50.792;0.252;2023-06-04T13:58:31;22.60;64.30
14370;DHT22;7268;50.792;0.252;2023-06-04T14:00:59;22.40;64.00
14370;DHT22;7268;50.792;0.252;2023-06-04T14:03:26;22.00;65.90
14370;DHT22;7268;50.792;0.252;2023-06-04T14:05:53;21.80;66.40
14370;DHT22;7268;50.792;0.252;2023-06-04T14:08:20;22.00;63.40
14370;DHT22;7268;50.792;0.252;2023-06-04T14:10:47;22.20;65.10
14370;DHT22;7268;50.792;0.252;2023-06-04T14:13:14;22.30;63.60
14370;DHT22;7268;50.792;0.252;2023-06-04T14:15:41;22.20;63.00
14370;DHT22;7268;50.792;0.252;2023-06-04T14:18:08;22.10;61.80
14370;DHT22;7268;50.792;0.252;2023-06-04T14:20:36;22.30;64.00
14370;DHT22;7268;50.792;0.252;2023-06-04T14:23:03;22.10;63.60
14370;DHT22;7268;50.792;0.252;2023-06-04T14:25:30;22.10;64.70
14370;DHT22;7268;50.792;0.252;2023-06-04T14:27:59;22.20;64.60
14370;DHT22;7268;50.792;0.252;2023-06-04T14:30:27;22.40;63.40
14370;DHT22;7268;50.792;0.252;2023-06-04T14:32:54;22.10;65.30
14370;DHT22;7268;50.792;0.252;2023-06-04T14:35:21;22.20;62.70
14370;DHT22;7268;50.792;0.252;2023-06-04T14:37:48;22.20;64.00
14370;DHT22;7268;50.792;0.252;2023-06-04T14:40:15;22.50;65.00
14370;DHT22;7268;50.792;0.252;2023-06-04T14:42:42;22.40;62.70
14370;DHT22;7268;50.792;0.252;2023-06-04T14:45:09;22.10;63.30
14370;DHT22;7268;50.792;0.252;2023-06-04T14:47:36;21.90;61.60
14370;DHT22;7268;50.792;0.252;2023-06-04T14:50:03;21.60;61.60
14370;DHT22;7268;50.792;0.252;2023-06-04T14:52:31;21.70;63.30
14370;DHT22;7268;50.792;0.252;2023-06-04T14:54:58;21.50;62.90
14370;DHT22;7268;50.792;0.252;2023-06-04T14:57:25;21.50;63.50
14370;DHT22;7268;50.792;0.252;2023-06-04T14:59:52;21.60;63.90
14370;DHT22;7268;50.792;0.252;2023-06-04T15:02:19;21.60;62.50
14370;DHT22;7268;50.792;0.252;2023-06-04T15:04:47;21.50;63.30
14370;DHT22;7268;50.792;0.252;2023-06-04T15:07:14;21.60;65.40
14370;DHT22;7268;50.792;0.252;2023-06-04T15:09:41;21.80;64.60
14370;DHT22;7268;50.792;0.252;2023-06-04T15:12:08;21.80;63.50
14370;DHT22;7268;50.792;0.252;2023-06-04T15:14:35;21.70;63.60
14370;DHT22;7268;50.792;0.252;2023-06-04T15:17:03;21.80;63.30
14370;DHT22;7268;50.792;0.252;2023-06-04T15:19:30;21.60;62.90
14370;DHT22;7268;50.792;0.252;2023-06-04T15:21:57;21.40;63.40
14370;DHT22;7268;50.792;0.252;2023-06-04T15:24:24;21.50;62.80
14370;DHT22;7268;50.792;0.252;2023-06-04T15:26:51;21.50;63.80
14370;DHT22;7268;50.792;0.252;2023-06-04T15:29:18;21.60;63.60
14370;DHT22;7268;50.792;0.252;2023-06-04T15:31:45;21.60;62.30
14370;DHT22;7268;50.792;0.252;2023-06-04T15:34:13;21.50;61.80
14370;DHT22;7268;50.792;0.252;2023-06-04T15:36:41;21.40;62.90
14370;DHT22;7268;50.792;0.252;2023-06-04T15:39:08;21.20;61.00
14370;DHT22;7268;50.792;0.252;2023-06-04T15:41:37;21.00;59.30
14370;DHT22;7268;50.792;0.252;2023-06-04T15:44:04;20.90;60.50
14370;DHT22;7268;50.792;0.252;2023-06-04T15:46:32;20.80;60.10
14370;DHT22;7268;50.792;0.252;2023-06-04T15:49:05;20.80;60.50
14370;DHT22;7268;50.792;0.252;2023-06-04T15:51:32;20.80;60.40
14370;DHT22;7268;50.792;0.252;2023-06-04T15:53:59;20.80;60.50